createdAt,value
2022-09-20T00:00:37.440Z,1016.29
2022-09-20T00:01:37.538Z,1016.21
2022-09-20T00:02:37.511Z,1016.19
2022-09-20T00:03:37.519Z,1016.25
2022-09-20T00:04:37.576Z,1016.22
2022-09-20T00:05:37.572Z,1016.24
2022-09-20T00:06:37.600Z,1016.22
2022-09-20T00:07:37.622Z,1016.21
2022-09-20T00:08:37.651Z,1016.19
2022-09-20T00:09:37.675Z,1016.22
2022-09-20T00:10:37.708Z,1016.21
2022-09-20T00:11:37.726Z,1016.24
2022-09-20T00:12:37.760Z,1016.25
2022-09-20T00:13:37.779Z,1016.23
2022-09-20T00:14:37.807Z,1016.18
2022-09-20T00:15:37.837Z,1016.21
2022-09-20T00:16:37.956Z,1016.21
2022-09-20T00:17:37.884Z,1016.20
2022-09-20T00:18:37.933Z,1016.23
2022-09-20T00:19:37.937Z,1016.18
2022-09-20T00:20:37.964Z,1016.20
2022-09-20T00:21:38.132Z,1016.19
2022-09-20T00:22:38.019Z,1016.20
2022-09-20T00:23:38.043Z,1016.17
2022-09-20T00:24:38.071Z,1016.17
2022-09-20T00:25:38.096Z,1016.18
2022-09-20T00:26:38.125Z,1016.17
2022-09-20T00:27:38.146Z,1016.20
2022-09-20T00:28:38.175Z,1016.20
2022-09-20T00:29:38.199Z,1016.23
2022-09-20T00:30:38.234Z,1016.31
2022-09-20T00:31:38.305Z,1016.26
2022-09-20T00:32:38.282Z,1016.30
2022-09-20T00:33:38.305Z,1016.28
2022-09-20T00:34:38.352Z,1016.29
2022-09-20T00:35:38.356Z,1016.30
2022-09-20T00:36:38.390Z,1016.28
2022-09-20T00:37:38.409Z,1016.33
2022-09-20T00:38:38.437Z,1016.27
2022-09-20T00:39:38.462Z,1016.29
2022-09-20T00:40:38.537Z,1016.28
2022-09-20T00:41:38.514Z,1016.30
2022-09-20T00:42:38.542Z,1016.27
2022-09-20T00:43:38.568Z,1016.28
2022-09-20T00:44:38.597Z,1016.29
2022-09-20T00:45:38.650Z,1016.25
2022-09-20T00:46:38.647Z,1016.26
2022-09-20T00:47:38.674Z,1016.25
2022-09-20T00:48:38.702Z,1016.24
2022-09-20T00:49:38.726Z,1016.26
2022-09-20T00:50:38.773Z,1016.22
2022-09-20T00:51:38.777Z,1016.24
2022-09-20T00:52:38.806Z,1016.25
2022-09-20T00:53:38.832Z,1016.26
2022-09-20T00:54:38.857Z,1016.31
2022-09-20T00:55:39.037Z,1016.29
2022-09-20T00:56:38.913Z,1016.31
2022-09-20T00:57:38.939Z,1016.35
2022-09-20T00:58:38.966Z,1016.29
2022-09-20T00:59:38.993Z,1016.32
2022-09-20T01:00:39.018Z,1016.28
2022-09-20T01:01:39.117Z,1016.30
2022-09-20T01:02:39.215Z,1016.28
2022-09-20T01:03:39.096Z,1016.34
2022-09-20T01:04:39.125Z,1016.38
2022-09-20T01:05:39.148Z,1016.36
2022-09-20T01:06:39.194Z,1016.35
2022-09-20T01:07:39.200Z,1016.33
2022-09-20T01:08:39.230Z,1016.37
2022-09-20T01:09:39.253Z,1016.29
2022-09-20T01:10:39.282Z,1016.36
2022-09-20T01:11:39.306Z,1016.31
2022-09-20T01:12:39.334Z,1016.30
2022-09-20T01:13:39.359Z,1016.32
2022-09-20T01:14:39.388Z,1016.30
2022-09-20T01:15:39.412Z,1016.29
2022-09-20T01:16:39.477Z,1016.32
2022-09-20T01:17:39.463Z,1016.34
2022-09-20T01:18:39.496Z,1016.31
2022-09-20T01:19:39.517Z,1016.35
2022-09-20T01:20:39.546Z,1016.31
2022-09-20T01:21:39.570Z,1016.30
2022-09-20T01:22:39.615Z,1016.32
2022-09-20T01:23:39.625Z,1016.29
2022-09-20T01:24:39.653Z,1016.34
2022-09-20T01:25:39.676Z,1016.32
2022-09-20T01:26:39.704Z,1016.36
2022-09-20T01:27:39.730Z,1016.31
2022-09-20T01:28:39.757Z,1016.32
2022-09-20T01:29:39.784Z,1016.39
2022-09-20T01:30:39.811Z,1016.35
2022-09-20T01:31:39.866Z,1016.35
2022-09-20T01:32:39.863Z,1016.38
2022-09-20T01:33:39.887Z,1016.37
2022-09-20T01:34:39.915Z,1016.34
2022-09-20T01:35:39.942Z,1016.34
2022-09-20T01:36:39.968Z,1016.36
2022-09-20T01:37:39.992Z,1016.36
2022-09-20T01:38:40.058Z,1016.35
2022-09-20T01:39:40.046Z,1016.37
2022-09-20T01:40:40.155Z,1016.33
2022-09-20T01:41:40.098Z,1016.32
2022-09-20T01:42:40.126Z,1016.38
2022-09-20T01:43:40.152Z,1016.35
2022-09-20T01:44:40.179Z,1016.33
2022-09-20T01:45:40.295Z,1016.36
2022-09-20T01:46:40.233Z,1016.37
2022-09-20T01:47:40.260Z,1016.38
2022-09-20T01:48:40.286Z,1016.35
2022-09-20T01:49:40.310Z,1016.36
2022-09-20T01:50:40.338Z,1016.39
2022-09-20T01:51:40.364Z,1016.39
2022-09-20T01:52:40.392Z,1016.39
2022-09-20T01:53:40.418Z,1016.40
2022-09-20T01:54:40.463Z,1016.42
2022-09-20T01:55:40.470Z,1016.44
2022-09-20T01:56:40.496Z,1016.45
2022-09-20T01:57:40.525Z,1016.47
2022-09-20T01:58:40.549Z,1016.52
2022-09-20T01:59:40.577Z,1016.50
2022-09-20T02:00:40.606Z,1016.45
2022-09-20T02:01:40.708Z,1016.47
2022-09-20T02:02:40.711Z,1016.44
2022-09-20T02:03:40.680Z,1016.46
2022-09-20T02:04:40.711Z,1016.44
2022-09-20T02:05:40.734Z,1016.45
2022-09-20T02:06:40.761Z,1016.41
2022-09-20T02:07:40.786Z,1016.41
2022-09-20T02:08:40.816Z,1016.45
2022-09-20T02:09:40.839Z,1016.48
2022-09-20T02:10:40.884Z,1016.44
2022-09-20T02:11:40.895Z,1016.46
2022-09-20T02:12:40.920Z,1016.47
2022-09-20T02:13:40.944Z,1016.50
2022-09-20T02:14:40.972Z,1016.45
2022-09-20T02:15:40.998Z,1016.41
2022-09-20T02:16:41.085Z,1016.44
2022-09-20T02:17:41.050Z,1016.43
2022-09-20T02:18:41.078Z,1016.41
2022-09-20T02:19:41.103Z,1016.46
2022-09-20T02:20:41.131Z,1016.47
2022-09-20T02:21:41.156Z,1016.45
2022-09-20T02:22:41.195Z,1016.47
2022-09-20T02:23:41.212Z,1016.43
2022-09-20T02:24:41.238Z,1016.45
2022-09-20T02:25:41.264Z,1016.42
2022-09-20T02:26:41.309Z,1016.44
2022-09-20T02:27:41.316Z,1016.43
2022-09-20T02:28:41.344Z,1016.39
2022-09-20T02:29:41.368Z,1016.36
2022-09-20T02:30:41.399Z,1016.44
2022-09-20T02:31:41.453Z,1016.44
2022-09-20T02:32:41.450Z,1016.40
2022-09-20T02:33:41.474Z,1016.37
2022-09-20T02:34:41.502Z,1016.40
2022-09-20T02:35:41.529Z,1016.38
2022-09-20T02:36:41.555Z,1016.37
2022-09-20T02:37:41.580Z,1016.34
2022-09-20T02:38:41.607Z,1016.38
2022-09-20T02:39:41.633Z,1016.32
2022-09-20T02:40:41.713Z,1016.38
2022-09-20T02:41:41.686Z,1016.38
2022-09-20T02:42:41.734Z,1016.37
2022-09-20T02:43:41.739Z,1016.37
2022-09-20T02:44:41.768Z,1016.36
2022-09-20T02:45:41.873Z,1016.32
2022-09-20T02:46:41.821Z,1016.34
2022-09-20T02:47:41.845Z,1016.34
2022-09-20T02:48:41.872Z,1016.31
2022-09-20T02:49:41.897Z,1016.34
2022-09-20T02:50:41.926Z,1016.29
2022-09-20T02:51:41.950Z,1016.32
2022-09-20T02:52:41.979Z,1016.25
2022-09-20T02:53:42.003Z,1016.28
2022-09-20T02:54:42.031Z,1016.29
2022-09-20T02:55:42.058Z,1016.29
2022-09-20T02:56:42.082Z,1016.25
2022-09-20T02:57:42.110Z,1016.25
2022-09-20T02:58:42.153Z,1016.23
2022-09-20T02:59:42.162Z,1016.25
2022-09-20T03:00:42.189Z,1016.25
2022-09-20T03:01:42.273Z,1016.26
2022-09-20T03:02:42.280Z,1016.21
2022-09-20T03:03:42.269Z,1016.23
2022-09-20T03:04:42.295Z,1016.29
2022-09-20T03:05:42.321Z,1016.25
2022-09-20T03:06:42.352Z,1016.25
2022-09-20T03:07:42.375Z,1016.25
2022-09-20T03:08:42.401Z,1016.18
2022-09-20T03:09:42.427Z,1016.24
2022-09-20T03:10:42.454Z,1016.23
2022-09-20T03:11:42.482Z,1016.24
2022-09-20T03:12:42.505Z,1016.25
2022-09-20T03:13:42.536Z,1016.24
2022-09-20T03:14:42.575Z,1016.24
2022-09-20T03:15:42.587Z,1016.28
2022-09-20T03:16:42.683Z,1016.24
2022-09-20T03:17:42.640Z,1016.24
2022-09-20T03:18:42.665Z,1016.26
2022-09-20T03:19:42.693Z,1016.29
2022-09-20T03:20:42.718Z,1016.28
2022-09-20T03:21:42.768Z,1016.27
2022-09-20T03:22:42.772Z,1016.30
2022-09-20T03:23:42.811Z,1016.28
2022-09-20T03:24:42.981Z,1016.27
2022-09-20T03:25:42.852Z,1016.28
2022-09-20T03:26:42.883Z,1016.26
2022-09-20T03:27:42.909Z,1016.27
2022-09-20T03:28:42.944Z,1016.30
2022-09-20T03:29:42.962Z,1016.31
2022-09-20T03:30:43.011Z,1016.32
2022-09-20T03:31:43.135Z,1016.34
2022-09-20T03:32:43.044Z,1016.35
2022-09-20T03:33:43.066Z,1016.34
2022-09-20T03:34:43.094Z,1016.36
2022-09-20T03:35:43.124Z,1016.35
2022-09-20T03:36:43.152Z,1016.37
2022-09-20T03:37:43.178Z,1016.38
2022-09-20T03:38:43.201Z,1016.36
2022-09-20T03:39:43.230Z,1016.35
2022-09-20T03:40:46.494Z,1016.37
2022-09-20T03:41:43.277Z,1016.31
2022-09-20T03:42:43.302Z,1016.34
2022-09-20T03:43:43.331Z,1016.32
2022-09-20T03:44:43.358Z,1016.35
2022-09-20T03:45:43.467Z,1016.27
2022-09-20T03:46:43.432Z,1016.27
2022-09-20T03:47:43.439Z,1016.32
2022-09-20T03:48:43.473Z,1016.30
2022-09-20T03:49:43.495Z,1016.24
2022-09-20T03:50:43.521Z,1016.27
2022-09-20T03:51:43.543Z,1016.28
2022-09-20T03:52:43.572Z,1016.26
2022-09-20T03:53:43.603Z,1016.25
2022-09-20T03:54:43.646Z,1016.26
2022-09-20T03:55:43.654Z,1016.24
2022-09-20T03:56:43.674Z,1016.28
2022-09-20T03:57:43.699Z,1016.28
2022-09-20T03:58:43.730Z,1016.30
2022-09-20T03:59:43.756Z,1016.24
2022-09-20T04:00:43.836Z,1016.26
2022-09-20T04:01:43.810Z,1016.26
2022-09-20T04:02:43.941Z,1016.26
2022-09-20T04:03:43.869Z,1016.23
2022-09-20T04:04:43.892Z,1016.22
2022-09-20T04:05:43.913Z,1016.22
2022-09-20T04:06:43.938Z,1016.27
2022-09-20T04:07:43.969Z,1016.27
2022-09-20T04:08:43.993Z,1016.20
2022-09-20T04:09:44.018Z,1016.23
2022-09-20T04:10:44.043Z,1016.24
2022-09-20T04:11:44.071Z,1016.26
2022-09-20T04:12:44.097Z,1016.34
2022-09-20T04:13:44.123Z,1016.28
2022-09-20T04:14:44.151Z,1016.31
2022-09-20T04:15:44.177Z,1016.30
2022-09-20T04:16:44.301Z,1016.31
2022-09-20T04:17:44.232Z,1016.36
2022-09-20T04:18:44.273Z,1016.34
2022-09-20T04:19:44.283Z,1016.33
2022-09-20T04:20:44.308Z,1016.40
2022-09-20T04:21:44.337Z,1016.35
2022-09-20T04:22:44.362Z,1016.36
2022-09-20T04:23:44.388Z,1016.41
2022-09-20T04:24:44.617Z,1016.35
2022-09-20T04:25:44.442Z,1016.38
2022-09-20T04:26:44.466Z,1016.35
2022-09-20T04:27:44.494Z,1016.32
2022-09-20T04:28:44.519Z,1016.31
2022-09-20T04:29:44.548Z,1016.34
2022-09-20T04:30:44.574Z,1016.35
2022-09-20T04:31:44.673Z,1016.31
2022-09-20T04:32:44.628Z,1016.32
2022-09-20T04:33:44.652Z,1016.31
2022-09-20T04:34:44.696Z,1016.40
2022-09-20T04:35:44.719Z,1016.38
2022-09-20T04:36:44.731Z,1016.41
2022-09-20T04:37:44.758Z,1016.37
2022-09-20T04:38:44.784Z,1016.43
2022-09-20T04:39:44.812Z,1016.41
2022-09-20T04:40:44.872Z,1016.39
2022-09-20T04:41:44.864Z,1016.42
2022-09-20T04:42:44.892Z,1016.45
2022-09-20T04:43:44.919Z,1016.43
2022-09-20T04:44:44.943Z,1016.46
2022-09-20T04:45:44.996Z,1016.45
2022-09-20T04:46:44.998Z,1016.47
2022-09-20T04:47:45.023Z,1016.49
2022-09-20T04:48:45.048Z,1016.50
2022-09-20T04:49:45.075Z,1016.48
2022-09-20T04:50:45.119Z,1016.46
2022-09-20T04:51:45.128Z,1016.47
2022-09-20T04:52:45.153Z,1016.48
2022-09-20T04:53:45.181Z,1016.47
2022-09-20T04:54:45.205Z,1016.55
2022-09-20T04:55:45.236Z,1016.52
2022-09-20T04:56:45.260Z,1016.53
2022-09-20T04:57:45.286Z,1016.54
2022-09-20T04:58:45.315Z,1016.48
2022-09-20T04:59:45.339Z,1016.51
2022-09-20T05:00:45.435Z,1016.51
2022-09-20T05:01:45.451Z,1016.55
2022-09-20T05:02:45.539Z,1016.54
2022-09-20T05:03:45.445Z,1016.56
2022-09-20T05:04:45.470Z,1016.58
2022-09-20T05:05:45.498Z,1016.54
2022-09-20T05:06:45.540Z,1016.58
2022-09-20T05:07:45.551Z,1016.58
2022-09-20T05:08:45.600Z,1016.57
2022-09-20T05:09:45.603Z,1016.55
2022-09-20T05:10:45.629Z,1016.55
2022-09-20T05:11:45.656Z,1016.62
2022-09-20T05:12:45.683Z,1016.61
2022-09-20T05:13:45.709Z,1016.61
2022-09-20T05:14:45.735Z,1016.62
2022-09-20T05:15:45.762Z,1016.63
2022-09-20T05:16:45.832Z,1016.62
2022-09-20T05:17:45.816Z,1016.63
2022-09-20T05:18:45.839Z,1016.65
2022-09-20T05:19:45.967Z,1016.64
2022-09-20T05:20:45.892Z,1016.69
2022-09-20T05:21:45.918Z,1016.68
2022-09-20T05:22:45.966Z,1016.67
2022-09-20T05:23:45.971Z,1016.68
2022-09-20T05:24:45.999Z,1016.71
2022-09-20T05:25:46.025Z,1016.70
2022-09-20T05:26:46.051Z,1016.73
2022-09-20T05:27:46.080Z,1016.74
2022-09-20T05:28:46.104Z,1016.78
2022-09-20T05:29:46.130Z,1016.78
2022-09-20T05:30:46.158Z,1016.78
2022-09-20T05:31:46.282Z,1016.77
2022-09-20T05:32:46.210Z,1016.78
2022-09-20T05:33:46.235Z,1016.80
2022-09-20T05:34:46.262Z,1016.76
2022-09-20T05:35:46.290Z,1016.78
2022-09-20T05:36:46.315Z,1016.81
2022-09-20T05:37:46.342Z,1016.77
2022-09-20T05:38:46.388Z,1016.83
2022-09-20T05:39:46.395Z,1016.81
2022-09-20T05:40:46.421Z,1016.80
2022-09-20T05:41:46.448Z,1016.82
2022-09-20T05:42:46.474Z,1016.80
2022-09-20T05:43:46.503Z,1016.86
2022-09-20T05:44:46.527Z,1016.81
2022-09-20T05:45:46.620Z,1016.85
2022-09-20T05:46:46.579Z,1016.86
2022-09-20T05:47:46.609Z,1016.89
2022-09-20T05:48:46.634Z,1016.83
2022-09-20T05:49:46.660Z,1016.88
2022-09-20T05:50:46.688Z,1016.87
2022-09-20T05:51:46.714Z,1016.85
2022-09-20T05:52:46.738Z,1016.86
2022-09-20T05:53:46.768Z,1016.93
2022-09-20T05:54:46.810Z,1016.91
2022-09-20T05:55:46.821Z,1016.92
2022-09-20T05:56:46.858Z,1016.96
2022-09-20T05:57:46.871Z,1016.89
2022-09-20T05:58:46.898Z,1016.95
2022-09-20T05:59:46.925Z,1016.99
2022-09-20T06:00:47.039Z,1016.97
2022-09-20T06:01:46.978Z,1016.98
2022-09-20T06:02:47.004Z,1016.96
2022-09-20T06:03:47.032Z,1016.98
2022-09-20T06:04:47.059Z,1016.97
2022-09-20T06:05:47.085Z,1017.02
2022-09-20T06:06:47.109Z,1017.00
2022-09-20T06:07:47.138Z,1017.01
2022-09-20T06:08:47.164Z,1016.95
2022-09-20T06:09:47.205Z,1016.96
2022-09-20T06:10:47.243Z,1016.97
2022-09-20T06:11:47.245Z,1017.06
2022-09-20T06:12:47.270Z,1017.00
2022-09-20T06:13:47.298Z,1016.94
2022-09-20T06:14:47.324Z,1016.97
2022-09-20T06:15:47.353Z,1017.01
2022-09-20T06:16:47.437Z,1017.01
2022-09-20T06:17:47.405Z,1016.98
2022-09-20T06:18:47.432Z,1016.97
2022-09-20T06:19:47.459Z,1016.95
2022-09-20T06:20:47.484Z,1016.94
2022-09-20T06:21:47.512Z,1016.92
2022-09-20T06:22:47.537Z,1016.96
2022-09-20T06:23:47.566Z,1016.91
2022-09-20T06:24:47.592Z,1016.88
2022-09-20T06:25:47.629Z,1016.87
2022-09-20T06:26:47.662Z,1016.94
2022-09-20T06:27:47.675Z,1016.92
2022-09-20T06:28:47.697Z,1016.97
2022-09-20T06:29:47.727Z,1017.00
2022-09-20T06:30:47.904Z,1016.95
2022-09-20T06:31:47.781Z,1017.03
2022-09-20T06:32:47.805Z,1017.04
2022-09-20T06:33:47.835Z,1017.01
2022-09-20T06:34:47.859Z,1016.93
2022-09-20T06:35:47.887Z,1016.97
2022-09-20T06:36:47.914Z,1016.96
2022-09-20T06:37:47.941Z,1016.96
2022-09-20T06:38:47.982Z,1016.99
2022-09-20T06:39:47.996Z,1016.99
2022-09-20T06:40:48.022Z,1017.02
2022-09-20T06:41:48.051Z,1017.01
2022-09-20T06:42:48.093Z,1016.99
2022-09-20T06:43:48.107Z,1017.05
2022-09-20T06:44:48.129Z,1017.08
2022-09-20T06:45:48.215Z,1017.10
2022-09-20T06:46:48.184Z,1017.09
2022-09-20T06:47:48.212Z,1017.11
2022-09-20T06:48:48.239Z,1017.10
2022-09-20T06:49:48.267Z,1017.15
2022-09-20T06:50:48.291Z,1017.17
2022-09-20T06:51:48.320Z,1017.15
2022-09-20T06:52:48.348Z,1017.16
2022-09-20T06:53:48.375Z,1017.22
2022-09-20T06:54:48.402Z,1017.19
2022-09-20T06:55:48.430Z,1017.19
2022-09-20T06:56:48.455Z,1017.13
2022-09-20T06:57:48.483Z,1017.19
2022-09-20T06:58:48.528Z,1017.20
2022-09-20T06:59:48.539Z,1017.19
2022-09-20T07:00:48.604Z,1017.20
2022-09-20T07:01:48.633Z,1017.23
2022-09-20T07:02:48.618Z,1017.16
2022-09-20T07:03:48.649Z,1017.21
2022-09-20T07:04:48.675Z,1017.23
2022-09-20T07:05:48.706Z,1017.19
2022-09-20T07:06:48.728Z,1017.28
2022-09-20T07:07:48.756Z,1017.22
2022-09-20T07:08:48.782Z,1017.16
2022-09-20T07:09:48.807Z,1017.26
2022-09-20T07:10:48.838Z,1017.23
2022-09-20T07:11:48.864Z,1017.24
2022-09-20T07:12:48.895Z,1017.22
2022-09-20T07:13:48.920Z,1017.20
2022-09-20T07:14:48.965Z,1017.21
2022-09-20T07:15:48.975Z,1017.19
2022-09-20T07:16:49.027Z,1017.22
2022-09-20T07:17:49.032Z,1017.26
2022-09-20T07:18:49.062Z,1017.24
2022-09-20T07:19:49.087Z,1017.25
2022-09-20T07:20:49.116Z,1017.23
2022-09-20T07:21:49.141Z,1017.22
2022-09-20T07:22:49.173Z,1017.26
2022-09-20T07:23:49.205Z,1017.28
2022-09-20T07:24:49.227Z,1017.29
2022-09-20T07:25:49.254Z,1017.24
2022-09-20T07:26:49.283Z,1017.27
2022-09-20T07:27:49.311Z,1017.23
2022-09-20T07:28:49.392Z,1017.26
2022-09-20T07:29:49.365Z,1017.29
2022-09-20T07:30:49.414Z,1017.29
2022-09-20T07:31:49.443Z,1017.29
2022-09-20T07:32:49.453Z,1017.29
2022-09-20T07:33:49.479Z,1017.28
2022-09-20T07:34:49.508Z,1017.34
2022-09-20T07:35:49.538Z,1017.27
2022-09-20T07:36:49.566Z,1017.30
2022-09-20T07:37:49.591Z,1017.40
2022-09-20T07:38:49.622Z,1017.35
2022-09-20T07:39:49.650Z,1017.40
2022-09-20T07:40:49.679Z,1017.43
2022-09-20T07:41:49.704Z,1017.33
2022-09-20T07:42:54.224Z,1017.42
2022-09-20T07:43:49.765Z,1017.39
2022-09-20T07:44:49.793Z,1017.44
2022-09-20T07:45:49.850Z,1017.44
2022-09-20T07:46:49.869Z,1017.44
2022-09-20T07:47:49.879Z,1017.47
2022-09-20T07:48:49.907Z,1017.50
2022-09-20T07:49:49.937Z,1017.51
2022-09-20T07:50:49.966Z,1017.50
2022-09-20T07:51:49.999Z,1017.47
2022-09-20T07:52:50.024Z,1017.49
2022-09-20T07:53:50.050Z,1017.46
2022-09-20T07:54:50.110Z,1017.38
2022-09-20T07:55:50.110Z,1017.50
2022-09-20T07:56:50.140Z,1017.51
2022-09-20T07:57:50.168Z,1017.50
2022-09-20T07:58:52.525Z,1017.53
2022-09-20T07:59:50.225Z,1017.44
2022-09-20T08:00:50.287Z,1017.58
2022-09-20T08:01:50.341Z,1017.55
2022-09-20T08:02:50.360Z,1017.39
2022-09-20T08:03:50.347Z,1017.39
2022-09-20T08:04:50.377Z,1017.58
2022-09-20T08:05:50.399Z,1017.60
2022-09-20T08:06:50.432Z,1017.60
2022-09-20T08:07:50.458Z,1017.51
2022-09-20T08:08:50.489Z,1017.56
2022-09-20T08:09:50.515Z,1017.56
2022-09-20T08:10:50.547Z,1017.54
2022-09-20T08:11:50.576Z,1017.56
2022-09-20T08:14:07.392Z,1017.51
2022-09-20T08:14:50.675Z,1017.54
2022-09-20T08:15:50.695Z,1017.46
2022-09-20T08:16:50.775Z,1017.50
2022-09-20T08:17:50.753Z,1017.48
2022-09-20T08:18:50.801Z,1017.57
2022-09-20T08:19:50.816Z,1017.47
2022-09-20T08:20:50.846Z,1017.43
2022-09-20T08:21:50.875Z,1017.53
2022-09-20T08:23:12.746Z,1017.61
2022-09-20T08:23:50.930Z,1017.59
2022-09-20T08:24:51.015Z,1017.58
2022-09-20T08:25:50.992Z,1017.59
2022-09-20T08:26:51.019Z,1017.62
2022-09-20T08:27:51.047Z,1017.58
2022-09-20T08:28:51.080Z,1017.59
2022-09-20T08:29:51.108Z,1017.55
2022-09-20T08:30:51.138Z,1017.50
2022-09-20T08:31:51.228Z,1017.51
2022-09-20T08:32:51.201Z,1017.40
2022-09-20T08:33:51.228Z,1017.53
2022-09-20T08:34:51.448Z,1017.36
2022-09-20T08:35:51.290Z,1017.42
2022-09-20T08:36:51.323Z,1017.39
2022-09-20T08:37:51.571Z,1017.40
2022-09-20T08:39:59.173Z,1017.42
2022-09-20T08:40:51.477Z,1017.49
2022-09-20T08:41:51.466Z,1017.48
2022-09-20T08:42:51.501Z,1017.68
2022-09-20T08:43:51.524Z,1017.68
2022-09-20T08:44:58.863Z,1017.62
2022-09-20T08:45:51.616Z,1017.64
2022-09-20T08:46:51.617Z,1017.66
2022-09-20T08:47:54.199Z,1017.59
2022-09-20T08:48:51.676Z,1017.57
2022-09-20T08:49:56.918Z,1017.47
2022-09-20T08:50:51.769Z,1017.47
2022-09-20T08:51:51.765Z,1017.51
2022-09-20T08:52:51.796Z,1017.48
2022-09-20T08:53:51.825Z,1017.45
2022-09-20T08:54:51.854Z,1017.48
2022-09-20T08:55:51.883Z,1017.49
2022-09-20T08:56:51.915Z,1017.46
2022-09-20T08:57:51.945Z,1017.49
2022-09-20T08:58:51.975Z,1017.45
2022-09-20T08:59:52.002Z,1017.46
2022-09-20T09:00:52.095Z,1017.48
2022-09-20T09:01:52.057Z,1017.48
2022-09-20T09:02:52.091Z,1017.65
2022-09-20T09:03:52.117Z,1017.65
2022-09-20T09:04:52.148Z,1017.51
2022-09-20T09:05:52.176Z,1017.49
2022-09-20T09:06:52.229Z,1017.46
2022-09-20T09:07:52.236Z,1017.50
2022-09-20T09:08:52.266Z,1017.46
2022-09-20T09:09:52.293Z,1017.46
2022-09-20T09:10:52.325Z,1017.45
2022-09-20T09:11:52.354Z,1017.39
2022-09-20T09:12:52.388Z,1017.39
2022-09-20T09:13:52.524Z,1017.44
2022-09-20T09:14:52.442Z,1017.37
2022-09-20T09:15:52.470Z,1017.39
2022-09-20T09:16:52.554Z,1017.40
2022-09-20T09:17:52.529Z,1017.41
2022-09-20T09:18:52.559Z,1017.43
2022-09-20T09:19:52.588Z,1017.42
2022-09-20T09:20:52.621Z,1017.41
2022-09-20T09:21:52.646Z,1017.41
2022-09-20T09:22:52.699Z,1017.39
2022-09-20T09:23:52.706Z,1017.38
2022-09-20T09:24:52.737Z,1017.39
2022-09-20T09:25:52.764Z,1017.42
2022-09-20T09:26:52.794Z,1017.46
2022-09-20T09:27:52.822Z,1017.47
2022-09-20T09:28:52.881Z,1017.44
2022-09-20T09:29:52.881Z,1017.45
2022-09-20T09:30:52.911Z,1017.36
2022-09-20T09:31:53.042Z,1017.40
2022-09-20T09:32:52.986Z,1017.43
2022-09-20T09:33:52.997Z,1017.48
2022-09-20T09:34:53.027Z,1017.46
2022-09-20T09:35:53.057Z,1017.46
2022-09-20T09:36:53.086Z,1017.39
2022-09-20T09:37:53.111Z,1017.48
2022-09-20T09:38:53.160Z,1017.43
2022-09-20T09:39:53.171Z,1017.41
2022-09-20T09:40:53.201Z,1017.44
2022-09-20T09:41:53.228Z,1017.43
2022-09-20T09:42:53.258Z,1017.47
2022-09-20T09:43:53.333Z,1017.44
2022-09-20T09:44:53.328Z,1017.46
2022-09-20T09:45:53.421Z,1017.42
2022-09-20T09:46:53.377Z,1017.43
2022-09-20T09:47:53.406Z,1017.49
2022-09-20T09:48:53.428Z,1017.50
2022-09-20T09:49:57.646Z,1017.50
2022-09-20T09:50:53.486Z,1017.54
2022-09-20T09:51:53.512Z,1017.47
2022-09-20T09:52:53.543Z,1017.50
2022-09-20T09:53:53.568Z,1017.48
2022-09-20T09:54:53.636Z,1017.50
2022-09-20T09:55:53.625Z,1017.48
2022-09-20T09:56:53.656Z,1017.49
2022-09-20T09:57:53.681Z,1017.46
2022-09-20T09:58:53.712Z,1017.46
2022-09-20T09:59:53.742Z,1017.49
2022-09-20T10:00:53.817Z,1017.51
2022-09-20T10:01:53.873Z,1017.53
2022-09-20T10:02:53.826Z,1017.50
2022-09-20T10:03:53.852Z,1017.56
2022-09-20T10:04:53.883Z,1017.54
2022-09-20T10:05:53.908Z,1017.54
2022-09-20T10:06:53.941Z,1017.56
2022-09-20T10:07:53.966Z,1017.57
2022-09-20T10:08:53.996Z,1017.57
2022-09-20T10:09:54.032Z,1017.55
2022-09-20T10:10:54.071Z,1017.50
2022-09-20T10:11:54.080Z,1017.54
2022-09-20T10:12:54.110Z,1017.49
2022-09-20T10:13:54.143Z,1017.51
2022-09-20T10:14:54.168Z,1017.51
2022-09-20T10:15:54.193Z,1017.49
2022-09-20T10:16:54.269Z,1017.47
2022-09-20T10:17:54.249Z,1017.52
2022-09-20T10:18:54.279Z,1017.52
2022-09-20T10:19:54.305Z,1017.48
2022-09-20T10:20:54.336Z,1017.48
2022-09-20T10:21:54.363Z,1017.50
2022-09-20T10:23:26.452Z,1017.45
2022-09-20T10:24:08.261Z,1017.46
2022-09-20T10:24:54.448Z,1017.41
2022-09-20T10:25:54.476Z,1017.46
2022-09-20T10:26:54.526Z,1017.44
2022-09-20T10:27:54.534Z,1017.43
2022-09-20T10:28:54.563Z,1017.45
2022-09-20T10:29:54.594Z,1017.43
2022-09-20T10:30:54.684Z,1017.39
2022-09-20T10:31:54.650Z,1017.40
2022-09-20T10:32:54.681Z,1017.40
2022-09-20T10:33:54.704Z,1017.42
2022-09-20T10:34:54.734Z,1017.38
2022-09-20T10:35:54.760Z,1017.42
2022-09-20T10:36:54.790Z,1017.38
2022-09-20T10:37:54.817Z,1017.42
2022-09-20T10:38:54.846Z,1017.42
2022-09-20T10:39:54.873Z,1017.41
2022-09-20T10:40:54.904Z,1017.38
2022-09-20T10:41:54.928Z,1017.34
2022-09-20T10:42:54.980Z,1017.33
2022-09-20T10:43:54.986Z,1017.41
2022-09-20T10:44:55.019Z,1017.42
2022-09-20T10:46:55.106Z,1017.42
2022-09-20T10:47:55.102Z,1017.45
2022-09-20T10:48:55.131Z,1017.65
2022-09-20T10:49:55.161Z,1017.58
2022-09-20T10:50:55.188Z,1017.44
2022-09-20T10:51:55.217Z,1017.45
2022-09-20T10:52:55.248Z,1017.47
2022-09-20T10:53:55.273Z,1017.43
2022-09-20T10:54:55.304Z,1017.43
2022-09-20T10:55:55.333Z,1017.42
2022-09-20T10:56:55.362Z,1017.47
2022-09-20T10:57:55.389Z,1017.43
2022-09-20T10:58:55.486Z,1017.45
2022-09-20T10:59:55.448Z,1017.41
2022-09-20T11:00:55.494Z,1017.43
2022-09-20T11:01:55.548Z,1017.44
2022-09-20T11:02:55.537Z,1017.40
2022-09-20T11:03:55.567Z,1017.44
2022-09-20T11:04:55.597Z,1017.39
2022-09-20T11:05:55.623Z,1017.35
2022-09-20T11:06:55.654Z,1017.42
2022-09-20T11:07:55.682Z,1017.39
2022-09-20T11:08:55.719Z,1017.39
2022-09-20T11:09:55.740Z,1017.39
2022-09-20T11:10:55.768Z,1017.40
2022-09-20T11:11:55.799Z,1017.41
2022-09-20T11:12:55.911Z,1017.45
2022-09-20T11:13:55.965Z,1017.41
2022-09-20T11:14:56.036Z,1017.40
2022-09-20T11:15:55.914Z,1017.40
2022-09-20T11:16:56.115Z,1017.46
2022-09-20T11:17:55.972Z,1017.45
2022-09-20T11:18:56.003Z,1017.45
2022-09-20T11:19:56.031Z,1017.42
2022-09-20T11:20:56.062Z,1017.43
2022-09-20T11:21:56.091Z,1017.47
2022-09-20T11:22:56.118Z,1017.42
2022-09-20T11:23:56.146Z,1017.46
2022-09-20T11:24:56.176Z,1017.44
2022-09-20T11:25:56.205Z,1017.41
2022-09-20T11:26:56.233Z,1017.45
2022-09-20T11:27:56.264Z,1017.48
2022-09-20T11:28:56.292Z,1017.50
2022-09-20T11:29:56.319Z,1017.46
2022-09-20T11:30:56.365Z,1017.47
2022-09-20T11:31:56.471Z,1017.52
2022-09-20T11:32:56.406Z,1017.53
2022-09-20T11:33:56.502Z,1017.55
2022-09-20T11:34:56.664Z,1017.56
2022-09-20T11:35:56.493Z,1017.57
2022-09-20T11:36:56.520Z,1017.52
2022-09-20T11:37:56.549Z,1017.57
2022-09-20T11:38:56.576Z,1017.61
2022-09-20T11:39:56.758Z,1017.65
2022-09-20T11:40:56.634Z,1017.60
2022-09-20T11:41:56.663Z,1017.69
2022-09-20T11:42:56.691Z,1017.66
2022-09-20T11:43:56.722Z,1017.67
2022-09-20T11:44:56.749Z,1017.71
2022-09-20T11:45:56.820Z,1017.71
2022-09-20T11:46:56.823Z,1017.69
2022-09-20T11:47:56.835Z,1017.66
2022-09-20T11:48:56.863Z,1017.63
2022-09-20T11:49:56.895Z,1017.61
2022-09-20T11:50:56.922Z,1017.66
2022-09-20T11:51:56.950Z,1017.75
2022-09-20T11:52:56.980Z,1017.75
2022-09-20T11:53:57.006Z,1017.74
2022-09-20T11:54:57.034Z,1017.74
2022-09-20T11:55:57.063Z,1017.70
2022-09-20T11:56:57.090Z,1017.71
2022-09-20T11:57:57.119Z,1017.76
2022-09-20T11:58:57.147Z,1017.73
2022-09-20T11:59:57.177Z,1017.72
2022-09-20T12:00:57.205Z,1017.70
2022-09-20T12:01:57.262Z,1017.74
2022-09-20T12:02:57.429Z,1017.72
2022-09-20T12:04:20.648Z,1017.71
2022-09-20T12:04:57.317Z,1017.76
2022-09-20T12:05:57.349Z,1017.74
2022-09-20T12:06:57.375Z,1017.72
2022-09-20T12:07:57.404Z,1017.77
2022-09-20T12:08:57.430Z,1017.80